This is the latest recevied weather packets stored in our database for station/object KJ4UBX-11. If no packets are shown the sender has not sent any weather packets the latest 10 day(s).
| Time | Temp. | Humidity | Pressure | Rain* | Wind** | Luminosity | Snow |
|---|---|---|---|---|---|---|---|
| 1778081109 | 18.89° C | 63% | 1007.7 hPa | - | - | - | - |
| 1778080529 | 20° C | 60% | 1007.5 hPa | - | - | - | - |
| 1778079948 | 20.56° C | 59% | 1007.5 hPa | - | - | - | - |
| 1778079364 | 21.11° C | 57% | 1007.4 hPa | - | - | - | - |
| 1778078781 | 20.56° C | 58% | 1007.2 hPa | - | - | - | - |
| 1778078200 | 22.22° C | 54% | 1007 hPa | - | - | - | - |
| 1778077617 | 22.78° C | 53% | 1007 hPa | - | - | - | - |
| 1778077033 | 21.67° C | 54% | 1007.3 hPa | - | - | - | - |
| 1778076448 | 22.22° C | 56% | 1007.6 hPa | - | - | - | - |
| 1778075863 | 21.11° C | 58% | 1007.8 hPa | - | - | - | - |
| 1778075277 | 20° C | 59% | 1007.6 hPa | - | - | - | - |
| 1778074694 | 19.44° C | 66% | 1007.7 hPa | - | - | - | - |
| 1778074112 | 19.44° C | 65% | 1007.5 hPa | - | - | - | - |
| 1778073528 | 19.44° C | 65% | 1007.4 hPa | - | - | - | - |
| 1778072941 | 18.33° C | 69% | 1007.6 hPa | - | - | - | - |
| 1778072361 | 19.44° C | 63% | 1007.5 hPa | - | - | - | - |
| 1778071782 | 21.67° C | 56% | 1007.5 hPa | - | - | - | - |
| 1778071195 | 20.56° C | 61% | 1007.5 hPa | - | - | - | - |
| 1778070612 | 20° C | 62% | 1007.5 hPa | - | - | - | - |
| 1778070031 | 21.11° C | 58% | 1007.8 hPa | - | - | - | - |
| 1778069442 | 17.78° C | 73% | 1007.8 hPa | - | - | - | - |
| 1778068859 | 18.33° C | 70% | 1007.7 hPa | - | - | - | - |
| 1778068274 | 18.33° C | 69% | 1008 hPa | - | - | - | - |
| 1778067691 | 17.78° C | 69% | 1008.1 hPa | - | - | - | - |
| 1778067108 | 18.33° C | 71% | 1008.2 hPa | - | - | - | - |
* Rain since midnight (hover to see other rain measurements)
** Current wind speed in m/s (hover to see current wind gust speed)